createdAt,value
2023-03-25T00:01:14.024Z,98578.03
2023-03-25T00:03:42.070Z,98561.59
2023-03-25T00:06:10.401Z,98562.44
2023-03-25T00:08:37.424Z,98587.47
2023-03-25T00:11:04.658Z,98627.03
2023-03-25T00:13:31.707Z,98657.66
2023-03-25T00:15:59.088Z,98769.72
2023-03-25T00:18:28.440Z,98941.50
2023-03-25T00:20:54.898Z,99020.94
2023-03-25T00:23:22.135Z,99051.09
2023-03-25T00:25:49.357Z,99035.38
2023-03-25T00:28:16.624Z,99041.13
2023-03-25T00:30:44.616Z,99096.31
2023-03-25T00:33:11.557Z,99142.88
2023-03-25T00:35:38.401Z,99147.25
2023-03-25T00:38:05.709Z,99135.59
2023-03-25T00:40:32.930Z,99184.63
2023-03-25T00:42:59.459Z,99189.31
2023-03-25T00:45:25.906Z,99190.47
2023-03-25T00:47:52.376Z,99176.34
2023-03-25T00:50:18.917Z,99176.69
2023-03-25T00:52:45.352Z,99203.75
2023-03-25T00:55:11.755Z,99199.59
2023-03-25T00:57:38.315Z,99206.41
2023-03-25T01:00:07.751Z,99238.00
2023-03-25T01:02:34.675Z,99269.09
2023-03-25T01:05:01.777Z,99302.78
2023-03-25T01:07:28.302Z,99336.38
2023-03-25T01:09:55.749Z,99350.31
2023-03-25T01:12:22.085Z,98647.16
2023-03-25T01:14:48.529Z,98587.75
2023-03-25T01:17:15.281Z,98583.31
2023-03-25T01:19:41.574Z,98571.28
2023-03-25T01:22:07.979Z,98563.47
2023-03-25T01:24:34.316Z,98550.84
2023-03-25T01:27:01.105Z,98562.84
2023-03-25T01:29:27.607Z,98568.16
2023-03-25T01:31:54.716Z,98570.84
2023-03-25T01:34:21.138Z,98572.00
2023-03-25T01:36:47.944Z,98575.22
2023-03-25T01:39:16.774Z,98589.34
2023-03-25T01:41:50.128Z,98600.50
2023-03-25T01:44:20.100Z,98576.94
2023-03-25T01:46:46.941Z,98570.97
2023-03-25T01:49:22.179Z,98584.94
2023-03-25T01:51:53.107Z,98583.91
2023-03-25T01:54:19.930Z,98592.91
2023-03-25T01:56:48.456Z,98573.03
2023-03-25T01:59:18.311Z,98578.50
2023-03-25T02:01:48.377Z,98573.19
2023-03-25T02:04:19.030Z,98612.31
2023-03-25T02:06:53.871Z,98634.41
2023-03-25T02:09:25.608Z,98633.56
2023-03-25T02:11:52.327Z,98624.50
2023-03-25T02:14:22.828Z,98623.66
2023-03-25T02:17:08.212Z,98624.03
2023-03-25T02:19:46.607Z,98617.91
2023-03-25T02:22:48.139Z,98618.91
2023-03-25T02:25:50.013Z,98611.66
2023-03-25T02:28:22.738Z,98619.53
2023-03-25T02:31:27.153Z,98625.81
2023-03-25T02:34:31.081Z,98630.91
2023-03-25T02:37:31.262Z,98643.59
2023-03-25T02:40:08.991Z,98636.44
2023-03-25T02:43:05.094Z,98641.75
2023-03-25T02:45:40.044Z,98641.53
2023-03-25T02:48:15.132Z,98643.69
2023-03-25T02:50:46.716Z,98654.94
2023-03-25T02:53:18.529Z,98669.34
2023-03-25T02:55:46.686Z,98671.28
2023-03-25T02:58:16.873Z,98673.13
2023-03-25T03:00:43.888Z,98680.16
2023-03-25T03:03:10.544Z,98681.38
2023-03-25T03:05:44.146Z,98686.88
2023-03-25T03:08:35.335Z,98670.13
2023-03-25T03:11:15.010Z,98646.72
2023-03-25T03:13:50.347Z,98646.34
2023-03-25T03:16:33.246Z,98637.19
2023-03-25T03:19:24.097Z,98618.31
2023-03-25T03:21:56.974Z,98632.59
2023-03-25T03:24:33.411Z,98593.72
2023-03-25T03:27:17.882Z,98574.84
2023-03-25T03:30:02.194Z,98591.88
2023-03-25T03:32:37.572Z,98608.28
2023-03-25T03:35:10.404Z,98615.50
2023-03-25T03:37:42.144Z,98604.41
2023-03-25T03:40:14.500Z,98622.34
2023-03-25T03:43:03.156Z,98610.25
2023-03-25T03:45:38.759Z,98668.94
2023-03-25T03:48:12.324Z,98679.44
2023-03-25T03:50:48.215Z,98706.69
2023-03-25T03:53:21.906Z,98741.41
2023-03-25T03:55:55.895Z,98731.13
2023-03-25T03:58:27.722Z,98749.72
2023-03-25T04:01:08.416Z,98768.34
2023-03-25T04:03:41.268Z,98785.63
2023-03-25T04:06:35.541Z,98788.41
2023-03-25T04:09:19.614Z,98820.13
2023-03-25T04:11:53.131Z,98844.84
2023-03-25T04:14:20.631Z,98862.81
2023-03-25T04:16:47.533Z,98885.00
2023-03-25T04:19:13.947Z,98910.72
2023-03-25T04:21:40.413Z,98936.78
2023-03-25T04:24:06.888Z,98971.13
2023-03-25T04:26:33.426Z,98964.50
2023-03-25T04:29:01.723Z,98987.53
2023-03-25T04:31:30.087Z,99005.47
2023-03-25T04:33:57.953Z,99027.19
2023-03-25T04:36:25.595Z,99028.19
2023-03-25T04:38:52.024Z,99019.22
2023-03-25T04:41:18.987Z,99021.72
2023-03-25T04:43:45.533Z,99056.03
2023-03-25T04:46:14.608Z,99056.38
2023-03-25T04:48:41.410Z,99068.31
2023-03-25T04:51:08.653Z,99080.41
2023-03-25T04:53:35.195Z,99111.03
2023-03-25T04:56:01.844Z,99130.59
2023-03-25T04:58:28.286Z,99157.75
2023-03-25T05:00:55.059Z,99169.50
2023-03-25T05:03:21.682Z,99192.19
2023-03-25T05:05:48.250Z,99205.38
2023-03-25T05:08:14.705Z,99241.16
2023-03-25T05:10:41.612Z,99255.25
2023-03-25T05:13:08.253Z,99273.50
2023-03-25T05:15:36.731Z,99261.38
2023-03-25T05:18:03.184Z,99263.19
2023-03-25T05:20:29.646Z,99263.88
2023-03-25T05:22:56.059Z,99254.88
2023-03-25T05:25:22.811Z,99272.28
2023-03-25T05:27:49.485Z,99277.50
2023-03-25T05:30:16.105Z,99269.72
2023-03-25T05:32:42.608Z,99257.34
2023-03-25T05:35:09.608Z,99243.63
2023-03-25T05:37:36.019Z,99245.66
2023-03-25T05:40:02.556Z,99247.84
2023-03-25T05:42:41.660Z,99242.91
2023-03-25T05:45:09.961Z,99230.16
2023-03-25T05:47:36.483Z,99230.19
2023-03-25T05:50:02.981Z,99214.13
2023-03-25T05:52:29.439Z,99191.09
2023-03-25T05:54:55.844Z,99185.66
2023-03-25T05:57:22.155Z,99157.63
2023-03-25T05:59:48.906Z,99140.84
2023-03-25T06:02:17.159Z,99122.78
2023-03-25T06:04:44.186Z,99091.56
2023-03-25T06:07:11.664Z,99088.22
2023-03-25T06:09:38.087Z,99084.25
2023-03-25T06:12:04.932Z,99067.97
2023-03-25T06:14:31.307Z,99070.59
2023-03-25T06:16:57.838Z,99055.34
2023-03-25T06:19:24.596Z,99035.72
2023-03-25T06:21:50.939Z,98998.88
2023-03-25T06:24:17.721Z,98959.28
2023-03-25T06:26:44.483Z,98956.97
2023-03-25T06:29:10.975Z,98946.19
2023-03-25T06:31:37.583Z,98899.50
2023-03-25T06:34:03.994Z,98891.47
2023-03-25T06:36:30.699Z,98865.41
2023-03-25T06:38:57.386Z,98868.34
2023-03-25T06:41:23.803Z,98875.72
2023-03-25T06:43:50.232Z,98831.41
2023-03-25T06:46:17.070Z,98770.91
2023-03-25T06:48:43.612Z,98727.88
2023-03-25T06:51:10.338Z,98731.94
2023-03-25T06:53:36.827Z,98704.03
2023-03-25T06:56:03.352Z,98674.47
2023-03-25T06:58:29.831Z,98658.41
2023-03-25T07:00:56.369Z,98642.13
2023-03-25T07:03:23.123Z,98653.31
2023-03-25T07:05:50.018Z,98647.25
2023-03-25T07:08:16.708Z,98643.19
2023-03-25T07:10:43.106Z,98662.63
2023-03-25T07:13:10.359Z,98649.31
2023-03-25T07:15:37.834Z,98609.84
2023-03-25T07:18:04.464Z,98617.88
2023-03-25T07:20:30.849Z,98612.50
2023-03-25T07:22:57.476Z,98637.22
2023-03-25T07:25:24.311Z,98627.38
2023-03-25T07:27:50.718Z,98603.63
2023-03-25T07:30:17.753Z,98588.59
2023-03-25T07:32:45.682Z,98613.63
2023-03-25T07:35:12.150Z,98645.19
2023-03-25T07:37:38.553Z,98613.19
2023-03-25T07:40:05.723Z,98605.97
2023-03-25T07:42:32.253Z,98604.91
2023-03-25T07:44:58.853Z,98617.75
2023-03-25T07:47:25.716Z,98619.72
2023-03-25T07:49:52.222Z,98593.91
2023-03-25T07:52:18.720Z,98620.94
2023-03-25T07:54:45.124Z,98571.31
2023-03-25T07:57:11.860Z,98562.38
2023-03-25T07:59:38.366Z,98517.31
2023-03-25T08:02:05.128Z,98506.06
2023-03-25T08:04:31.554Z,98485.44
2023-03-25T08:06:57.985Z,98477.72
2023-03-25T08:09:24.775Z,98468.34
2023-03-25T08:11:51.514Z,98483.19
2023-03-25T08:14:17.995Z,98475.38
2023-03-25T08:16:44.433Z,98463.53
2023-03-25T08:19:10.923Z,98420.81
2023-03-25T08:21:37.470Z,98412.59
2023-03-25T08:24:04.147Z,98397.81
2023-03-25T08:26:32.237Z,98392.84
2023-03-25T08:28:58.580Z,98371.75
2023-03-25T08:31:25.839Z,98429.66
2023-03-25T08:33:52.702Z,98399.03
2023-03-25T08:36:19.509Z,98395.13
2023-03-25T08:38:46.911Z,98375.28
2023-03-25T08:41:13.418Z,98393.50
2023-03-25T08:43:39.994Z,98394.13
2023-03-25T08:46:06.854Z,98404.59
2023-03-25T08:48:33.371Z,98459.97
2023-03-25T08:51:00.167Z,98536.38
2023-03-25T08:53:27.017Z,98578.28
2023-03-25T08:55:54.822Z,98700.97
2023-03-25T08:58:21.304Z,98697.16
2023-03-25T09:00:49.788Z,98751.41
2023-03-25T09:03:16.163Z,98734.47
2023-03-25T09:05:42.555Z,98677.31
2023-03-25T09:08:09.222Z,98642.13
2023-03-25T09:10:36.740Z,98626.53
2023-03-25T09:13:04.770Z,98631.72
2023-03-25T09:15:31.492Z,98667.88
2023-03-25T09:17:58.385Z,98726.88
2023-03-25T09:20:25.138Z,98780.19
2023-03-25T09:22:51.615Z,98716.47
2023-03-25T09:25:18.093Z,98717.03
2023-03-25T09:27:44.788Z,98711.25
2023-03-25T09:30:11.763Z,98726.59
2023-03-25T09:32:38.424Z,98730.19
2023-03-25T09:35:05.895Z,98715.19
2023-03-25T09:37:32.704Z,98761.19
2023-03-25T09:39:59.342Z,98767.50
2023-03-25T09:42:38.314Z,98773.81
2023-03-25T09:45:28.291Z,98784.78
2023-03-25T09:48:01.167Z,98788.28
2023-03-25T09:50:30.479Z,98796.81
2023-03-25T09:53:04.913Z,98782.56
2023-03-25T09:55:35.964Z,98765.47
2023-03-25T09:58:24.434Z,98781.66
2023-03-25T10:01:03.865Z,98689.47
2023-03-25T10:03:39.852Z,98696.00
2023-03-25T10:06:21.670Z,98673.13
2023-03-25T10:09:20.169Z,98639.31
2023-03-25T10:11:57.871Z,98655.06
2023-03-25T10:14:29.719Z,98635.38
2023-03-25T10:17:15.060Z,98608.38
2023-03-25T10:20:06.798Z,98457.13
2023-03-25T10:22:59.784Z,98438.00
2023-03-25T10:25:30.913Z,98442.94
2023-03-25T10:27:58.276Z,98457.00
2023-03-25T10:30:42.923Z,98403.97
2023-03-25T10:33:24.897Z,98366.28
2023-03-25T10:35:51.599Z,98349.28
2023-03-25T10:38:24.040Z,98358.06
2023-03-25T10:41:05.060Z,98314.91
2023-03-25T10:43:36.331Z,98314.78
2023-03-25T10:46:08.988Z,98308.16
2023-03-25T10:48:35.902Z,98325.38
2023-03-25T10:51:12.037Z,98307.63
2023-03-25T10:53:41.534Z,98306.78
2023-03-25T10:56:13.776Z,98280.28
2023-03-25T10:58:42.679Z,98276.56
2023-03-25T11:01:15.591Z,98256.41
2023-03-25T11:03:44.040Z,98245.69
2023-03-25T11:06:23.474Z,98253.06
2023-03-25T11:09:13.413Z,98227.03
2023-03-25T11:11:41.295Z,98251.03
2023-03-25T11:14:08.016Z,98249.50
2023-03-25T11:16:41.531Z,98265.00
2023-03-25T11:19:18.183Z,98301.31
2023-03-25T11:21:49.643Z,98353.19
2023-03-25T11:24:18.644Z,98376.81
2023-03-25T11:26:48.459Z,98410.88
2023-03-25T11:29:19.176Z,98411.53
2023-03-25T11:31:55.083Z,98313.00
2023-03-25T11:34:23.147Z,98254.59
2023-03-25T11:37:06.301Z,98253.63
2023-03-25T11:39:35.545Z,98244.34
2023-03-25T11:42:19.959Z,98225.25
2023-03-25T11:44:54.996Z,98211.53
2023-03-25T11:47:26.411Z,98222.34
2023-03-25T11:49:54.251Z,98220.72
2023-03-25T11:52:36.696Z,98210.97
2023-03-25T11:55:03.396Z,98236.47
2023-03-25T11:57:39.088Z,98264.09
2023-03-25T12:00:27.882Z,98293.59
2023-03-25T12:03:13.842Z,98320.91
2023-03-25T12:05:41.681Z,98322.94
2023-03-25T12:08:15.514Z,98291.94
2023-03-25T12:10:54.971Z,98292.25
2023-03-25T12:14:03.213Z,98282.41
2023-03-25T12:16:45.221Z,98262.22
2023-03-25T12:19:26.979Z,98231.16
2023-03-25T12:22:15.119Z,98214.63
2023-03-25T12:24:56.765Z,98205.31
2023-03-25T12:27:56.279Z,98193.50
2023-03-25T12:30:44.608Z,98189.78
2023-03-25T12:33:24.159Z,98181.78
2023-03-25T12:36:11.859Z,98195.84
2023-03-25T12:38:57.793Z,98188.44
2023-03-25T12:41:40.980Z,98190.81
2023-03-25T12:44:27.696Z,98182.22
2023-03-25T12:47:30.833Z,98180.03
2023-03-25T12:50:07.996Z,98173.31
2023-03-25T12:52:37.280Z,98166.81
2023-03-25T12:55:23.602Z,98166.81
2023-03-25T12:57:59.307Z,98178.00
2023-03-25T13:00:43.145Z,98195.13
2023-03-25T13:03:39.891Z,98218.63
2023-03-25T13:06:27.835Z,98199.56
2023-03-25T13:09:17.588Z,98214.69
2023-03-25T13:11:59.593Z,98227.41
2023-03-25T13:15:00.258Z,98232.44
2023-03-25T13:17:31.085Z,98263.94
2023-03-25T13:20:00.600Z,98303.88
2023-03-25T13:22:34.630Z,98343.78
2023-03-25T13:25:06.814Z,98327.50
2023-03-25T13:27:35.812Z,98319.19
2023-03-25T13:30:06.062Z,98319.50
2023-03-25T13:32:53.535Z,98331.91
2023-03-25T13:35:27.518Z,98331.34
2023-03-25T13:37:59.757Z,98311.69
2023-03-25T13:40:30.406Z,98300.94
2023-03-25T13:43:12.357Z,98297.25
2023-03-25T13:46:16.777Z,98282.53
2023-03-25T13:48:56.880Z,98237.22
2023-03-25T13:51:23.635Z,98227.88
2023-03-25T13:53:59.332Z,98218.25
2023-03-25T13:56:51.395Z,98226.06
2023-03-25T13:59:36.961Z,98222.16
2023-03-25T14:02:23.174Z,98193.69
2023-03-25T14:05:22.048Z,98214.75
2023-03-25T14:08:03.505Z,98207.50
2023-03-25T14:11:07.605Z,98188.25
2023-03-25T14:13:39.712Z,98199.88
2023-03-25T14:16:09.694Z,98200.88
2023-03-25T14:19:04.277Z,98203.41
2023-03-25T14:21:36.690Z,98212.19
2023-03-25T14:24:10.414Z,98204.41
2023-03-25T14:26:44.304Z,98205.81
2023-03-25T14:29:23.894Z,98197.53
2023-03-25T14:32:06.308Z,98216.91
2023-03-25T14:34:33.706Z,98231.34
2023-03-25T14:37:00.245Z,98226.50
2023-03-25T14:39:29.772Z,98223.53
2023-03-25T14:42:10.035Z,98208.88
2023-03-25T14:44:49.292Z,98213.13
2023-03-25T14:47:15.899Z,98203.09
2023-03-25T14:50:20.603Z,98199.53
2023-03-25T14:53:01.078Z,98200.56
2023-03-25T14:55:30.911Z,98189.03
2023-03-25T14:58:05.304Z,98183.06
2023-03-25T15:00:35.656Z,98181.00
2023-03-25T15:03:13.504Z,98178.63
2023-03-25T15:05:42.109Z,98178.28
2023-03-25T15:08:26.812Z,98190.19
2023-03-25T15:11:27.216Z,98192.75
2023-03-25T15:13:59.278Z,98188.47
2023-03-25T15:16:32.207Z,98191.41
2023-03-25T15:19:01.596Z,98192.91
2023-03-25T15:21:32.360Z,98197.19
2023-03-25T15:24:12.135Z,98199.50
2023-03-25T15:26:44.997Z,98196.53
2023-03-25T15:29:23.875Z,98181.56
2023-03-25T15:32:18.306Z,98187.75
2023-03-25T15:35:22.385Z,98200.41
2023-03-25T15:37:58.904Z,98209.53
2023-03-25T15:40:42.122Z,98202.22
2023-03-25T15:44:00.697Z,98203.84
2023-03-25T15:46:55.629Z,98193.88
2023-03-25T15:49:51.239Z,98199.19
2023-03-25T15:53:35.944Z,98202.63
2023-03-25T15:56:12.632Z,98207.88
2023-03-25T15:58:57.920Z,98208.78
2023-03-25T16:01:31.113Z,98210.88
2023-03-25T16:04:32.646Z,98212.97
2023-03-25T16:07:00.706Z,98221.75
2023-03-25T16:09:28.981Z,98219.09
2023-03-25T16:12:01.156Z,98215.41
2023-03-25T16:14:33.246Z,98213.59
2023-03-25T16:17:03.348Z,98210.66
2023-03-25T16:19:52.039Z,98205.00
2023-03-25T16:22:28.374Z,98209.66
2023-03-25T16:25:01.891Z,98225.97
2023-03-25T16:27:36.246Z,98221.03
2023-03-25T16:30:18.570Z,98219.63
2023-03-25T16:32:45.370Z,98226.91
2023-03-25T16:35:21.724Z,98225.47
2023-03-25T16:37:48.282Z,98226.59
2023-03-25T16:40:24.150Z,98226.44
2023-03-25T16:42:53.558Z,98222.41
2023-03-25T16:45:20.495Z,98224.84
2023-03-25T16:47:47.570Z,98222.16
2023-03-25T16:50:17.589Z,98218.47
2023-03-25T16:52:44.078Z,98222.00
2023-03-25T16:55:26.176Z,98229.84
2023-03-25T16:57:52.963Z,98229.91
2023-03-25T17:00:24.245Z,98238.97
2023-03-25T17:02:51.616Z,98241.34
2023-03-25T17:05:22.470Z,98256.41
2023-03-25T17:07:57.839Z,98257.66
2023-03-25T17:10:29.812Z,98267.72
2023-03-25T17:13:03.059Z,98277.44
2023-03-25T17:15:32.312Z,98293.22
2023-03-25T17:18:00.761Z,98292.03
2023-03-25T17:20:39.531Z,98291.81
2023-03-25T17:23:18.432Z,98283.38
2023-03-25T17:25:52.168Z,98293.44
2023-03-25T17:28:38.803Z,98287.69
2023-03-25T17:31:23.717Z,98299.41
2023-03-25T17:33:59.026Z,98304.97
2023-03-25T17:36:26.546Z,98317.31
2023-03-25T17:38:53.501Z,98310.56
2023-03-25T17:41:22.186Z,98326.78
2023-03-25T17:43:51.688Z,98341.13
2023-03-25T17:46:24.547Z,98350.81
2023-03-25T17:48:51.749Z,98358.19
2023-03-25T17:51:20.924Z,98374.38
2023-03-25T17:53:48.859Z,98375.00
2023-03-25T17:56:19.152Z,98396.53
2023-03-25T17:58:45.666Z,98399.81
2023-03-25T18:01:13.678Z,98420.94
2023-03-25T18:03:40.401Z,98408.63
2023-03-25T18:06:07.265Z,98411.50
2023-03-25T18:08:33.634Z,98409.69
2023-03-25T18:11:00.293Z,98404.75
2023-03-25T18:13:26.764Z,98412.75
2023-03-25T18:15:54.407Z,98396.97
2023-03-25T18:18:26.152Z,98398.03
2023-03-25T18:20:54.247Z,98388.75
2023-03-25T18:23:21.129Z,98397.41
2023-03-25T18:25:48.012Z,98387.53
2023-03-25T18:28:15.020Z,98407.06
2023-03-25T18:30:56.997Z,98386.09
2023-03-25T18:33:24.044Z,98374.00
2023-03-25T18:35:51.121Z,98368.63
2023-03-25T18:38:23.554Z,98359.00
2023-03-25T18:40:51.844Z,98375.22
2023-03-25T18:43:18.816Z,98371.13
2023-03-25T18:45:47.796Z,98369.28
2023-03-25T18:48:19.683Z,98378.28
2023-03-25T18:50:50.804Z,98386.31
2023-03-25T18:53:17.940Z,98387.94
2023-03-25T18:55:44.877Z,98378.50
2023-03-25T18:58:26.336Z,98384.28
2023-03-25T19:00:53.962Z,98374.81
2023-03-25T19:03:22.437Z,98381.78
2023-03-25T19:05:48.861Z,98383.84
2023-03-25T19:08:17.949Z,98383.66
2023-03-25T19:10:45.807Z,98392.06
2023-03-25T19:13:26.445Z,98388.56
2023-03-25T19:15:53.541Z,98408.47
2023-03-25T19:18:26.438Z,98418.72
2023-03-25T19:20:54.531Z,98419.50
2023-03-25T19:23:21.746Z,98428.34
2023-03-25T19:25:50.718Z,98436.28
2023-03-25T19:28:20.799Z,98436.50
2023-03-25T19:30:50.589Z,98447.72
2023-03-25T19:33:18.156Z,98454.50
2023-03-25T19:35:52.760Z,98473.53
2023-03-25T19:38:20.539Z,98491.97
2023-03-25T19:40:47.334Z,98472.09
2023-03-25T19:43:13.974Z,98494.03
2023-03-25T19:45:40.886Z,98506.94
2023-03-25T19:48:44.227Z,98505.09
2023-03-25T20:01:21.152Z,98547.50
2023-03-25T20:04:18.472Z,98602.66
2023-03-25T20:10:20.069Z,98590.28
2023-03-25T20:12:49.037Z,98613.41
2023-03-25T20:15:17.665Z,98629.94
2023-03-25T20:17:44.904Z,98664.50
2023-03-25T20:20:14.027Z,98660.78
2023-03-25T20:22:40.961Z,98661.69
2023-03-25T20:25:09.443Z,98664.56
2023-03-25T20:27:36.132Z,98618.66
2023-03-25T20:30:04.343Z,98614.13
2023-03-25T20:36:59.618Z,98594.88
2023-03-25T20:39:33.675Z,98598.97
2023-03-25T20:42:00.518Z,98558.41
2023-03-25T20:44:27.079Z,98550.41
2023-03-25T20:46:53.537Z,98570.66
2023-03-25T20:49:23.849Z,98570.81
2023-03-25T20:51:50.597Z,98577.38
2023-03-25T20:54:17.269Z,98539.47
2023-03-25T20:56:43.992Z,98530.66
2023-03-25T20:59:10.991Z,98522.66
2023-03-25T21:01:37.400Z,98529.97
2023-03-25T21:04:06.318Z,98536.94
2023-03-25T21:06:32.829Z,98549.63
2023-03-25T21:09:05.142Z,98558.25
2023-03-25T21:11:33.618Z,98564.44
2023-03-25T21:14:00.146Z,98566.09
2023-03-25T21:16:26.515Z,98553.59
2023-03-25T21:18:53.065Z,98549.63
2023-03-25T21:21:19.895Z,98560.66
2023-03-25T21:23:46.977Z,98566.16
2023-03-25T21:26:13.464Z,98578.66
2023-03-25T21:28:39.959Z,98576.66
2023-03-25T21:31:09.267Z,98586.84
2023-03-25T21:34:18.375Z,98580.50
2023-03-25T21:40:06.534Z,98574.75
2023-03-25T21:42:32.979Z,98575.34
2023-03-25T21:44:59.453Z,98578.88
2023-03-25T21:47:26.174Z,98569.03
2023-03-25T21:49:52.621Z,98578.03
2023-03-25T21:52:18.983Z,98577.84
2023-03-25T21:54:45.756Z,98595.03
2023-03-25T21:57:12.592Z,98598.69
2023-03-25T21:59:39.033Z,98604.41
2023-03-25T22:02:05.781Z,98612.00
2023-03-25T22:04:32.148Z,98613.09
2023-03-25T22:06:58.889Z,98605.66
2023-03-25T22:09:25.639Z,98604.66
2023-03-25T22:11:52.012Z,98607.69
2023-03-25T22:14:18.418Z,98607.06
2023-03-25T22:16:44.837Z,98595.22
2023-03-25T22:19:12.029Z,98614.25
2023-03-25T22:21:38.397Z,98607.25
2023-03-25T22:24:09.156Z,98610.94
2023-03-25T22:26:37.210Z,98611.31
2023-03-25T22:29:05.824Z,98624.81
2023-03-25T22:31:34.785Z,98611.69
2023-03-25T22:34:05.990Z,98606.72
2023-03-25T22:36:34.350Z,98610.78
2023-03-25T22:39:01.181Z,98621.16
2023-03-25T22:41:28.884Z,98614.38
2023-03-25T22:43:55.376Z,98638.91
2023-03-25T22:46:22.228Z,98652.13
2023-03-25T22:48:48.747Z,98662.31
2023-03-25T22:51:18.212Z,98673.22
2023-03-25T22:53:45.184Z,98674.59
2023-03-25T22:56:12.455Z,98670.00
2023-03-25T22:58:39.234Z,98688.81
2023-03-25T23:01:17.534Z,98705.34
2023-03-25T23:03:44.222Z,98721.84
2023-03-25T23:06:10.803Z,98736.25
2023-03-25T23:08:39.028Z,98734.69
2023-03-25T23:11:16.859Z,98747.81
2023-03-25T23:13:46.154Z,98747.81
2023-03-25T23:16:15.852Z,98733.50
2023-03-25T23:18:42.361Z,98698.06
2023-03-25T23:21:13.196Z,98704.84
2023-03-25T23:23:39.513Z,98704.03
2023-03-25T23:26:22.522Z,98709.00
2023-03-25T23:28:49.668Z,98707.59
2023-03-25T23:31:18.916Z,98726.06
2023-03-25T23:33:50.478Z,98758.19
2023-03-25T23:36:18.473Z,98797.66
2023-03-25T23:38:45.369Z,98837.00
2023-03-25T23:41:14.466Z,98866.19
2023-03-25T23:43:41.700Z,98887.38
2023-03-25T23:46:10.827Z,98913.66
2023-03-25T23:48:38.671Z,98951.50
2023-03-25T23:51:05.322Z,98995.78
2023-03-25T23:53:31.646Z,98988.03
2023-03-25T23:55:58.073Z,99020.09
2023-03-25T23:58:25.460Z,99021.94
